Time;durP1;ratioP1;P1;durP2;ratioP2;P2;SDS_P1;SDS_P2;PMS_P1;PMS_P2;Temp;Humidity;BMP_temperature;BMP_pressure;BME280_temperature;BME280_humidity;BME280_pressure;Samples;Min_cycle;Max_cycle;Signal;HPM_P1;HPM_P2
2024/01/03 00:02:23;;;;;;;8.53;8.33;;;;;;;-141.02;100.00;46235.59;5113703;28;20663;-79
2024/01/03 00:04:50;;;;;;;7.70;7.50;;;;;;;-141.02;100.00;46147.22;5113556;28;20659;-79
2024/01/03 00:07:17;;;;;;;7.20;7.00;;;;;;;-141.02;100.00;46031.91;5113537;28;20663;-81
2024/01/03 00:09:45;;;;;;;7.70;7.50;;;;;;;-141.02;100.00;45712.94;5113743;28;20193;-80
2024/01/03 00:12:22;;;;;;;7.40;7.20;;;;;;;-141.02;100.00;45686.06;5113736;28;20276;-80
2024/01/03 00:14:49;;;;;;;7.83;7.63;;;;;;;-141.02;100.00;45636.09;5113232;28;20705;-77
2024/01/03 00:17:16;;;;;;;8.40;8.20;;;;;;;-141.02;100.00;45192.28;5113351;28;20684;-81
2024/01/03 00:19:44;;;;;;;8.20;8.00;;;;;;;-141.02;100.00;45248.00;5113646;28;20577;-80
2024/01/03 00:22:13;;;;;;;8.60;8.40;;;;;;;-141.02;100.00;44917.59;5113880;28;20276;-80
2024/01/03 00:24:48;;;;;;;8.40;8.20;;;;;;;-141.02;100.00;44633.31;5113295;28;20197;-81
2024/01/03 00:27:16;;;;;;;9.10;8.90;;;;;;;-141.02;100.00;44675.56;5113077;28;20276;-80
2024/01/03 00:29:54;;;;;;;9.70;9.40;;;;;;;-141.02;100.00;44448.91;5113495;28;20197;-80
2024/01/03 00:32:22;;;;;;;9.60;9.30;;;;;;;-141.02;100.00;44414.34;5113498;28;20544;-75
2024/01/03 00:34:50;;;;;;;9.40;9.10;;;;;;;-141.02;100.00;44667.88;5113305;28;20207;-79
2024/01/03 00:37:25;;;;;;;9.40;9.10;;;;;;;-141.02;100.00;44679.41;5113348;28;20193;-82
2024/01/03 00:39:55;;;;;;;9.80;9.50;;;;;;;-141.02;100.00;44900.31;5113293;28;20264;-81
2024/01/03 00:42:22;;;;;;;9.80;9.50;;;;;;;-141.02;100.00;44756.22;5112938;28;20231;-82
2024/01/03 00:44:49;;;;;;;8.83;8.63;;;;;;;-141.02;100.00;44815.78;5112838;28;20189;-83
2024/01/03 00:47:18;;;;;;;9.73;9.43;;;;;;;-141.02;100.00;44815.78;5113117;28;20197;-82
2024/01/03 00:49:51;;;;;;;9.47;9.17;;;;;;;-141.02;100.00;44779.28;5113116;28;20201;-83
2024/01/03 00:52:20;;;;;;;8.90;8.70;;;;;;;-141.02;100.00;44998.28;5113148;28;20276;-79
2024/01/03 00:54:47;;;;;;;8.80;8.60;;;;;;;-141.02;100.00;44988.66;5112607;28;20246;-82
2024/01/03 00:57:18;;;;;;;9.03;8.83;;;;;;;-141.02;100.00;44927.19;5113278;28;20197;-81
2024/01/03 00:59:45;;;;;;;9.07;8.87;;;;;;;-141.02;100.00;44760.06;5112954;28;20193;-79
2024/01/03 01:02:12;;;;;;;9.20;9.00;;;;;;;-141.02;100.00;44733.19;5113114;28;20289;-82
2024/01/03 01:04:41;;;;;;;8.83;8.63;;;;;;;-141.02;100.00;44752.38;5113020;28;20276;-76
2024/01/03 01:07:08;;;;;;;9.10;8.90;;;;;;;-141.02;100.00;44704.38;5112851;28;20224;-82
2024/01/03 01:09:38;;;;;;;8.70;8.50;;;;;;;-141.02;100.00;44729.34;5112522;28;20280;-81
2024/01/03 01:12:08;;;;;;;8.60;8.40;;;;;;;-141.02;100.00;44848.44;5112429;28;20197;-80
2024/01/03 01:14:37;;;;;;;8.93;8.73;;;;;;;-141.02;100.00;44852.28;5112279;28;20271;-78
2024/01/03 01:17:04;;;;;;;8.93;8.73;;;;;;;-141.02;100.00;44848.44;5112686;28;20319;-82
2024/01/03 01:19:31;;;;;;;8.93;8.73;;;;;;;-141.02;100.00;44836.91;5112553;28;20279;-82
2024/01/03 01:21:58;;;;;;;8.97;8.77;;;;;;;-141.02;100.00;44867.66;5112742;28;20196;-82
2024/01/03 01:24:25;;;;;;;9.00;8.80;;;;;;;-141.02;100.00;44833.06;5112941;28;20203;-79
2024/01/03 01:26:51;;;;;;;8.50;8.30;;;;;;;-141.02;100.00;44756.22;5112955;28;20276;-80
2024/01/03 01:29:19;;;;;;;8.87;8.67;;;;;;;-141.02;100.00;44748.56;5113032;28;20199;-77
2024/01/03 01:31:47;;;;;;;9.10;8.90;;;;;;;-141.02;100.00;44712.06;5112698;28;20215;-81
2024/01/03 01:34:14;;;;;;;8.70;8.50;;;;;;;-141.02;100.00;44786.97;5112327;28;20203;-82
2024/01/03 01:36:42;;;;;;;8.90;8.70;;;;;;;-141.02;100.00;44786.97;5112963;28;20235;-82
2024/01/03 01:39:09;;;;;;;8.87;8.67;;;;;;;-141.02;100.00;44702.44;5116515;28;20235;-81
2024/01/03 01:41:36;;;;;;;8.60;8.40;;;;;;;-141.02;100.00;44587.19;5116605;28;20228;-78
2024/01/03 01:44:04;;;;;;;9.07;8.87;;;;;;;-141.02;100.00;44360.56;5116400;28;20196;-80
2024/01/03 01:46:31;;;;;;;8.60;8.40;;;;;;;-141.02;100.00;44498.84;5116674;28;20189;-81
2024/01/03 01:48:59;;;;;;;8.50;8.30;;;;;;;-141.02;100.00;44594.88;5116535;28;20277;-81
2024/01/03 01:51:27;;;;;;;9.00;8.80;;;;;;;-141.02;100.00;44479.66;5116290;28;20289;-82
2024/01/03 01:53:54;;;;;;;8.77;8.57;;;;;;;-141.02;100.00;44475.81;5116453;28;20192;-79
2024/01/03 01:56:22;;;;;;;9.17;8.97;;;;;;;-141.02;100.00;44295.25;5116378;28;20225;-78
2024/01/03 01:58:50;;;;;;;9.40;9.10;;;;;;;-141.02;100.00;44291.41;5116359;28;20200;-79
2024/01/03 02:01:18;;;;;;;9.67;9.37;;;;;;;-141.02;100.00;44314.47;5116307;28;20189;-83
2024/01/03 02:03:48;;;;;;;9.40;9.10;;;;;;;-141.02;100.00;44199.22;5116333;28;20225;-80
2024/01/03 02:06:17;;;;;;;9.40;9.10;;;;;;;-141.02;100.00;44137.78;5116523;28;20201;-81
2024/01/03 02:08:44;;;;;;;9.47;9.17;;;;;;;-141.02;100.00;44084.00;5115890;28;20288;-83
2024/01/03 02:11:11;;;;;;;10.03;9.73;;;;;;;-141.02;100.00;43961.09;5115842;28;20570;-82
2024/01/03 02:13:38;;;;;;;10.53;10.23;;;;;;;-141.02;100.00;43930.38;5115730;28;20239;-82
2024/01/03 02:16:06;;;;;;;10.23;9.93;;;;;;;-141.02;100.00;43899.66;5115597;28;20813;-79
2024/01/03 02:18:33;;;;;;;10.43;10.13;;;;;;;-141.02;100.00;43772.91;5115986;28;20295;-81
2024/01/03 02:21:01;;;;;;;9.70;9.40;;;;;;;-141.02;100.00;43765.22;5115986;28;20211;-77
2024/01/03 02:23:29;;;;;;;10.20;9.90;;;;;;;-141.02;100.00;43726.81;5115846;28;20355;-82
2024/01/03 02:25:56;;;;;;;10.07;9.77;;;;;;;-141.02;100.00;43801.72;5115631;28;20287;-78
2024/01/03 02:28:23;;;;;;;10.00;9.70;;;;;;;-141.02;100.00;43686.50;5115495;28;20685;-83
2024/01/03 02:30:50;;;;;;;10.20;9.90;;;;;;;-141.02;100.00;43625.03;5115757;28;20201;-77
2024/01/03 02:33:17;;;;;;;10.13;9.83;;;;;;;-141.02;100.00;43559.75;5115424;28;20193;-78
2024/01/03 02:35:44;;;;;;;10.00;9.70;;;;;;;-141.02;100.00;43707.63;5115237;28;20231;-81
2024/01/03 02:38:11;;;;;;;9.80;9.50;;;;;;;-141.02;100.00;43707.63;5115718;28;20221;-81
2024/01/03 02:40:40;;;;;;;10.40;10.10;;;;;;;-141.02;100.00;43734.50;5115587;28;20225;-81
2024/01/03 02:43:07;;;;;;;10.00;9.70;;;;;;;-141.02;100.00;43744.09;5115520;28;20276;-83
2024/01/03 02:45:34;;;;;;;11.00;10.70;;;;;;;-141.02;100.00;43684.56;5115434;28;20232;-77
2024/01/03 02:48:01;;;;;;;10.23;9.93;;;;;;;-141.02;100.00;43467.59;5114560;28;20718;-82
2024/01/03 02:50:28;;;;;;;10.70;10.40;;;;;;;-141.02;100.00;43396.56;5115163;28;20228;-84
2024/01/03 02:52:55;;;;;;;10.70;10.40;;;;;;;-141.02;100.00;43383.09;5115039;28;20670;-82
2024/01/03 02:55:21;;;;;;;10.27;9.97;;;;;;;-141.02;100.00;43273.66;5115361;28;20195;-83
2024/01/03 02:57:50;;;;;;;10.77;10.47;;;;;;;-141.02;100.00;43369.66;5114944;28;20315;-83
2024/01/03 03:00:17;;;;;;;10.67;10.37;;;;;;;-141.02;100.00;43208.38;5115240;28;20643;-79
2024/01/03 03:02:44;;;;;;;10.87;10.57;;;;;;;-141.02;100.00;43231.44;5115141;28;20272;-82
2024/01/03 03:05:12;;;;;;;10.57;10.27;;;;;;;-141.02;100.00;43269.81;5114866;28;20288;-84
2024/01/03 03:07:39;;;;;;;10.47;10.17;;;;;;;-141.02;100.00;43273.66;5115146;28;20201;-85
2024/01/03 03:10:10;;;;;;;10.80;10.50;;;;;;;-141.02;100.00;43227.59;5114698;28;20189;-84
2024/01/03 03:12:37;;;;;;;11.00;10.70;;;;;;;-141.02;100.00;43108.56;5114728;28;20192;-82
2024/01/03 03:15:06;;;;;;;11.30;11.00;;;;;;;-141.02;100.00;43008.72;5114461;28;20604;-84
2024/01/03 03:17:33;;;;;;;11.40;11.10;;;;;;;-141.02;100.00;43020.25;5114797;28;20228;-83
2024/01/03 03:20:00;;;;;;;12.20;11.80;;;;;;;-141.02;100.00;42872.41;5114878;28;20228;-83
2024/01/03 03:22:27;;;;;;;11.57;11.27;;;;;;;-141.02;100.00;42874.34;5114741;28;20193;-83
2024/01/03 03:24:54;;;;;;;12.07;11.67;;;;;;;-141.02;100.00;42789.88;5114451;28;20232;-81
2024/01/03 03:27:21;;;;;;;11.83;11.47;;;;;;;-141.02;100.00;42709.25;5114451;27;20569;-84
2024/01/03 03:29:49;;;;;;;12.00;11.60;;;;;;;-141.02;100.00;42647.81;5114645;28;20276;-85
2024/01/03 03:32:18;;;;;;;12.20;11.80;;;;;;;-141.02;100.00;42632.44;5114623;28;20197;-84
2024/01/03 03:34:45;;;;;;;12.20;11.80;;;;;;;-141.02;100.00;42594.06;5114736;28;20193;-85
2024/01/03 03:37:12;;;;;;;12.10;11.70;;;;;;;-141.02;100.00;42628.63;5114752;28;20225;-80
2024/01/03 03:39:39;;;;;;;11.93;11.53;;;;;;;-141.02;100.00;42620.94;5114097;28;20197;-84
2024/01/03 03:42:09;;;;;;;12.13;11.73;;;;;;;-141.02;100.00;42492.31;5114439;28;20189;-81
2024/01/03 03:44:40;;;;;;;12.60;12.20;;;;;;;-141.02;100.00;42317.66;5114245;28;20753;-81
2024/01/03 03:47:07;;;;;;;13.43;13.03;;;;;;;-141.02;100.00;42148.75;5114047;28;20231;-82
2024/01/03 03:49:35;;;;;;;13.60;13.20;;;;;;;-141.02;100.00;42014.38;5113914;28;20203;-84
2024/01/03 03:52:02;;;;;;;13.53;13.13;;;;;;;-141.02;100.00;41883.88;5114179;28;20197;-79
2024/01/03 03:54:29;;;;;;;13.70;13.30;;;;;;;-141.02;100.00;41807.09;5114371;28;20199;-86
2024/01/03 03:56:56;;;;;;;13.30;12.90;;;;;;;-141.02;100.00;41761.06;5114174;28;20231;-84
2024/01/03 03:59:23;;;;;;;13.07;12.67;;;;;;;-141.02;100.00;41722.66;5113823;28;20669;-81
2024/01/03 04:01:50;;;;;;;12.70;12.30;;;;;;;-141.02;100.00;41736.09;5114046;28;20311;-83
2024/01/03 04:04:18;;;;;;;12.40;12.00;;;;;;;-141.02;100.00;41786.00;5113788;28;20284;-82
2024/01/03 04:06:47;;;;;;;12.13;11.73;;;;;;;-141.02;100.00;41682.38;5113650;28;20204;-81
2024/01/03 04:09:14;;;;;;;12.20;11.80;;;;;;;-141.02;100.00;41676.59;5113543;28;20246;-83
2024/01/03 04:11:41;;;;;;;12.63;12.23;;;;;;;-141.02;100.00;41668.94;5113860;28;20225;-81
2024/01/03 04:14:09;;;;;;;12.23;11.83;;;;;;;-141.02;100.00;41772.56;5113256;28;20229;-82
2024/01/03 04:16:36;;;;;;;11.13;10.83;;;;;;;-141.02;100.00;41784.06;5113467;28;20673;-85
2024/01/03 04:19:04;;;;;;;11.17;10.87;;;;;;;-141.02;100.00;41818.63;5113479;28;20279;-84
2024/01/03 04:21:31;;;;;;;11.47;11.17;;;;;;;-141.02;100.00;41916.50;5113367;28;20189;-83
2024/01/03 04:24:00;;;;;;;11.60;11.30;;;;;;;-141.02;100.00;41891.56;5113617;28;20657;-83
2024/01/03 04:26:28;;;;;;;11.20;10.90;;;;;;;-141.02;100.00;42047.00;5113196;28;20750;-83
2024/01/03 04:28:55;;;;;;;11.67;11.33;;;;;;;-141.02;100.00;41596.00;5113237;28;20574;-84
2024/01/03 04:31:22;;;;;;;11.80;11.40;;;;;;;-141.02;100.00;41818.63;5113427;28;20201;-82
2024/01/03 04:33:49;;;;;;;11.40;11.10;;;;;;;-141.02;100.00;41889.63;5113544;28;20272;-85
2024/01/03 04:36:16;;;;;;;12.00;11.60;;;;;;;-141.02;100.00;41738.03;5113288;28;20221;-85
2024/01/03 04:38:43;;;;;;;12.10;11.70;;;;;;;-141.02;100.00;41766.81;5113470;28;20285;-85
2024/01/03 04:41:11;;;;;;;11.60;11.30;;;;;;;-141.02;100.00;41810.94;5113802;28;20194;-83
2024/01/03 04:43:38;;;;;;;11.97;11.57;;;;;;;-141.02;100.00;41780.25;5113628;28;20197;-72
2024/01/03 04:46:05;;;;;;;11.97;11.57;;;;;;;-141.02;100.00;41857.00;5113355;28;20193;-73
2024/01/03 04:48:32;;;;;;;15.40;14.80;;;;;;;-141.02;100.00;41768.72;5112830;28;20755;-85
2024/01/03 04:50:59;;;;;;;11.40;11.10;;;;;;;-141.02;100.00;41849.34;5113691;28;20199;-80
2024/01/03 04:53:26;;;;;;;11.97;11.57;;;;;;;-141.02;100.00;41711.16;5113191;28;20275;-85
2024/01/03 04:55:53;;;;;;;12.03;11.63;;;;;;;-141.02;100.00;41653.59;5113102;28;20193;-80
2024/01/03 04:58:21;;;;;;;12.30;11.90;;;;;;;-141.02;100.00;41691.97;5112729;28;20605;-80
2024/01/03 05:00:48;;;;;;;12.20;11.80;;;;;;;-141.02;100.00;41653.59;5113086;28;20232;-84
2024/01/03 05:03:16;;;;;;;12.63;12.23;;;;;;;-141.02;100.00;41572.97;5113019;28;20229;-83
2024/01/03 05:05:43;;;;;;;16.37;15.77;;;;;;;-141.02;100.00;41500.06;5113105;28;20208;-86
2024/01/03 05:08:10;;;;;;;13.00;12.60;;;;;;;-141.02;100.00;41444.41;5112882;28;20676;-86
2024/01/03 05:10:37;;;;;;;12.67;12.27;;;;;;;-141.02;100.00;41478.94;5112955;28;20256;-84
2024/01/03 05:13:04;;;;;;;13.03;12.63;;;;;;;-141.02;100.00;41419.47;5111953;28;20276;-80
2024/01/03 05:15:32;;;;;;;12.70;12.30;;;;;;;-141.02;100.00;41417.53;5112956;28;20268;-86
2024/01/03 05:17:59;;;;;;;12.60;12.20;;;;;;;-141.02;100.00;41448.25;5112879;28;20229;-83
2024/01/03 05:20:26;;;;;;;12.93;12.53;;;;;;;-141.02;100.00;41419.47;5112608;28;20189;-86
2024/01/03 05:22:54;;;;;;;12.90;12.50;;;;;;;-141.02;100.00;41381.09;5112437;28;20193;-86
2024/01/03 05:25:21;;;;;;;12.63;12.23;;;;;;;-141.02;100.00;41375.31;5112939;28;20189;-86
2024/01/03 05:27:48;;;;;;;13.00;12.60;;;;;;;-141.02;100.00;41423.28;5112738;28;20310;-85
2024/01/03 05:30:15;;;;;;;12.50;12.10;;;;;;;-141.02;100.00;41296.66;5112382;28;20563;-84
2024/01/03 05:32:44;;;;;;;12.30;11.90;;;;;;;-141.02;100.00;41367.66;5112396;28;20284;-85
2024/01/03 05:35:10;;;;;;;12.67;12.27;;;;;;;-141.02;100.00;41313.91;5112750;28;20200;-79
2024/01/03 05:37:37;;;;;;;13.03;12.63;;;;;;;-141.02;100.00;41265.94;5112249;28;20225;-81
2024/01/03 05:40:06;;;;;;;13.30;12.90;;;;;;;-141.02;100.00;41185.34;5112863;28;20195;-81
2024/01/03 05:42:33;;;;;;;14.07;13.57;;;;;;;-141.02;100.00;41198.78;5112638;28;20228;-85
2024/01/03 05:45:00;;;;;;;13.40;13.00;;;;;;;-141.02;100.00;41097.09;5112651;28;20195;-85
2024/01/03 05:47:27;;;;;;;13.43;13.03;;;;;;;-141.02;100.00;41137.38;5112920;28;20193;-84
2024/01/03 05:49:56;;;;;;;14.07;13.57;;;;;;;-141.02;100.00;41081.75;5112595;28;20225;-83
2024/01/03 05:52:23;;;;;;;13.50;13.10;;;;;;;-141.02;100.00;41024.19;5112616;28;20193;-85
2024/01/03 05:54:50;;;;;;;13.53;13.13;;;;;;;-141.02;100.00;41085.59;5112768;28;20258;-83
2024/01/03 05:57:17;;;;;;;14.70;14.20;;;;;;;-141.02;100.00;41093.25;5112121;28;20228;-79
2024/01/03 05:59:43;;;;;;;14.50;14.00;;;;;;;-141.02;100.00;41108.59;5113319;28;20193;-83
2024/01/03 06:02:10;;;;;;;13.30;12.90;;;;;;;-141.02;100.00;41139.31;5112782;28;20208;-84
2024/01/03 06:04:37;;;;;;;12.63;12.23;;;;;;;-141.02;100.00;41150.81;5112370;28;20199;-82
2024/01/03 06:07:05;;;;;;;13.87;13.47;;;;;;;-141.02;100.00;41229.50;5112382;28;20207;-81
2024/01/03 06:09:33;;;;;;;12.70;12.30;;;;;;;-141.02;100.00;41377.25;5113174;28;20600;-85
2024/01/03 06:11:59;;;;;;;12.97;12.57;;;;;;;-141.02;100.00;41559.53;5112061;28;20197;-84
2024/01/03 06:14:26;;;;;;;14.70;14.20;;;;;;;-141.02;100.00;41684.28;5112116;28;20238;-84
2024/01/03 06:20:15;;;;;;;12.60;12.20;;;;;;;-141.02;100.00;41991.34;5111958;28;20204;-79
2024/01/03 06:22:43;;;;;;;12.97;12.57;;;;;;;-141.02;100.00;42087.31;5112278;28;20196;-86
2024/01/03 06:25:31;;;;;;;14.53;14.03;;;;;;;-141.02;100.00;42352.19;5115299;28;20211;-85
2024/01/03 06:27:58;;;;;;;12.90;12.50;;;;;;;-141.02;100.00;42574.88;5115662;28;20189;-83
2024/01/03 06:30:24;;;;;;;12.60;12.20;;;;;;;-141.02;100.00;42761.06;5115869;28;20203;-85
2024/01/03 06:32:51;;;;;;;14.67;14.17;;;;;;;-141.02;100.00;42724.59;5115852;28;20280;-83
2024/01/03 06:35:18;;;;;;;14.67;14.17;;;;;;;-141.02;100.00;42716.91;5115460;28;20281;-82
2024/01/03 06:37:47;;;;;;;13.73;13.23;;;;;;;-141.02;100.00;42653.56;5115284;28;20224;-85
2024/01/03 06:40:14;;;;;;;14.03;13.53;;;;;;;-141.02;100.00;42642.03;5115695;28;20197;-85
2024/01/03 06:42:41;;;;;;;14.90;14.40;;;;;;;-141.02;100.00;42624.78;5115650;28;20633;-85
2024/01/03 06:45:09;;;;;;;14.20;13.70;;;;;;;-141.02;100.00;42617.09;5115361;28;20641;-76
2024/01/03 06:47:37;;;;;;;14.50;14.00;;;;;;;-141.02;100.00;42590.22;5115525;28;20197;-81
2024/01/03 06:50:04;;;;;;;14.23;13.73;;;;;;;-141.02;100.00;42674.69;5115245;28;20189;-84
2024/01/03 06:52:32;;;;;;;14.23;13.73;;;;;;;-141.02;100.00;42534.56;5115130;28;20694;-85
2024/01/03 06:55:01;;;;;;;14.20;13.70;;;;;;;-141.02;100.00;42544.16;5115346;28;20232;-84
2024/01/03 06:57:28;;;;;;;14.43;13.93;;;;;;;-141.02;100.00;42461.59;5115324;28;20232;-85
2024/01/03 06:59:55;;;;;;;14.03;13.53;;;;;;;-141.02;100.00;42336.84;5115017;28;20667;-83
2024/01/03 07:02:22;;;;;;;14.43;13.93;;;;;;;-141.02;100.00;42329.16;5115264;28;20276;-80
2024/01/03 07:04:49;;;;;;;14.97;14.37;;;;;;;-141.02;100.00;42198.63;5115127;28;20193;-82
2024/01/03 07:07:17;;;;;;;14.70;14.10;;;;;;;-141.02;100.00;42225.50;5115130;28;20193;-83
2024/01/03 07:09:44;;;;;;;14.10;13.60;;;;;;;-141.02;100.00;42336.84;5114766;28;20193;-81
2024/01/03 07:12:12;;;;;;;14.87;14.27;;;;;;;-141.02;100.00;42455.84;5114733;28;20197;-83
2024/01/03 07:14:39;;;;;;;14.70;14.10;;;;;;;-141.02;100.00;42521.13;5114716;28;20319;-80
2024/01/03 07:17:06;;;;;;;14.73;14.13;;;;;;;-141.02;100.00;42588.31;5114845;28;20193;-84
2024/01/03 07:19:33;;;;;;;15.07;14.47;;;;;;;-141.02;100.00;42542.22;5114603;28;20189;-77
2024/01/03 07:22:00;;;;;;;19.00;18.10;;;;;;;-141.02;100.00;42634.38;5114829;28;20225;-84
2024/01/03 07:24:27;;;;;;;15.27;14.67;;;;;;;-141.02;100.00;42555.66;5114828;28;20197;-80
2024/01/03 07:26:54;;;;;;;15.60;14.90;;;;;;;-141.02;100.00;42517.28;5114504;28;20228;-82
2024/01/03 07:29:23;;;;;;;15.90;15.20;;;;;;;-141.02;100.00;42613.25;5114911;28;20221;-81
2024/01/03 07:31:49;;;;;;;16.20;15.50;;;;;;;-141.02;100.00;42536.47;5114547;28;20284;-83
2024/01/03 07:34:16;;;;;;;16.17;15.47;;;;;;;-141.02;100.00;42609.41;5114213;28;20578;-82
2024/01/03 07:36:43;;;;;;;16.73;15.93;;;;;;;-141.02;100.00;42601.72;5114191;28;20230;-80
2024/01/03 07:39:10;;;;;;;16.60;15.90;;;;;;;-141.02;100.00;42688.13;5114104;28;20221;-81
2024/01/03 07:41:37;;;;;;;17.27;16.47;;;;;;;-141.02;100.00;42571.03;5114114;28;20283;-78
2024/01/03 07:44:04;;;;;;;16.50;15.70;;;;;;;-141.02;100.00;42463.53;5114346;28;20239;-81
2024/01/03 07:46:33;;;;;;;16.60;15.80;;;;;;;-141.02;100.00;42386.75;5114420;28;20292;-82
2024/01/03 07:49:00;;;;;;;16.00;15.30;;;;;;;-141.02;100.00;42409.78;5114099;28;20232;-81
2024/01/03 07:51:27;;;;;;;15.90;15.20;;;;;;;-141.02;100.00;42528.78;5114296;28;20251;-80
2024/01/03 07:53:54;;;;;;;16.23;15.50;;;;;;;-141.02;100.00;42490.41;5114333;28;20197;-83
2024/01/03 07:56:21;;;;;;;16.43;15.63;;;;;;;-141.02;100.00;42344.53;5115043;28;20650;-80
2024/01/03 07:58:48;;;;;;;16.10;15.40;;;;;;;-141.02;100.00;42309.97;5114490;28;20721;-72
2024/01/03 08:01:15;;;;;;;16.30;15.50;;;;;;;-141.02;100.00;42141.06;5114174;28;20197;-78
2024/01/03 08:03:43;;;;;;;16.47;15.67;;;;;;;-141.02;100.00;42081.56;5114016;28;20272;-82
2024/01/03 08:06:11;;;;;;;15.93;15.23;;;;;;;-141.02;100.00;42367.56;5113981;28;20612;-81
2024/01/03 08:08:38;;;;;;;15.90;15.20;;;;;;;-141.02;100.00;42523.03;5113916;28;20266;-80
2024/01/03 08:11:06;;;;;;;15.60;14.90;;;;;;;-141.02;100.00;42620.94;5114099;28;20261;-79
2024/01/03 08:13:33;;;;;;;16.50;15.70;;;;;;;-141.02;100.00;42605.56;5113396;28;20233;-80
2024/01/03 08:16:00;;;;;;;16.03;15.27;;;;;;;-141.02;100.00;42444.34;5113718;28;20194;-77
2024/01/03 08:18:27;;;;;;;16.47;15.67;;;;;;;-141.02;100.00;42298.44;5113711;28;20229;-75
2024/01/03 08:20:55;;;;;;;15.50;14.80;;;;;;;-141.02;100.00;42160.25;5113669;28;20193;-81
2024/01/03 08:23:22;;;;;;;16.17;15.37;;;;;;;-141.02;100.00;42093.06;5113810;28;20288;-80
2024/01/03 08:25:49;;;;;;;16.50;15.70;;;;;;;-141.02;100.00;42098.84;5113245;28;20232;-80
2024/01/03 08:28:16;;;;;;;15.30;14.60;;;;;;;-141.02;100.00;42171.78;5113547;28;20279;-77
2024/01/03 08:30:43;;;;;;;16.07;15.27;;;;;;;-141.02;100.00;42020.16;5113544;28;20193;-82
2024/01/03 08:33:09;;;;;;;16.20;15.40;;;;;;;-141.02;100.00;42187.13;5113233;28;20283;-81
2024/01/03 08:35:36;;;;;;;16.57;15.77;;;;;;;-141.02;100.00;42346.44;5113416;28;20280;-80
2024/01/03 08:38:05;;;;;;;16.40;15.60;;;;;;;-141.02;100.00;42432.81;5113253;28;20315;-78
2024/01/03 08:40:32;;;;;;;16.60;15.80;;;;;;;-141.02;100.00;42478.88;5113228;28;20265;-76
2024/01/03 08:43:00;;;;;;;17.37;16.47;;;;;;;-141.02;100.00;42432.81;5113254;28;20231;-80
2024/01/03 08:45:27;;;;;;;17.47;16.57;;;;;;;-141.02;100.00;42482.72;5113226;28;20212;-79
2024/01/03 08:47:54;;;;;;;17.23;16.33;;;;;;;-141.02;100.00;42340.69;5112232;28;20289;-80
2024/01/03 08:50:21;;;;;;;17.57;16.57;;;;;;;-141.02;100.00;42263.91;5112877;28;20201;-76
2024/01/03 08:52:48;;;;;;;17.47;16.47;;;;;;;-141.02;100.00;42250.47;5113065;28;20193;-79
2024/01/03 08:55:17;;;;;;;20.70;19.60;;;;;;;-141.02;100.00;42313.81;5113107;28;20229;-78
2024/01/03 08:57:43;;;;;;;17.63;16.63;;;;;;;-141.02;100.00;42202.47;5112621;28;20260;-77
2024/01/03 09:00:11;;;;;;;16.87;15.97;;;;;;;-141.02;100.00;42129.53;5113010;28;20280;-80
2024/01/03 09:02:39;;;;;;;16.37;15.57;;;;;;;-141.02;100.00;42244.72;5112679;28;20279;-83
2024/01/03 09:05:07;;;;;;;16.50;15.70;;;;;;;-141.02;100.00;42102.66;5112666;28;20202;-81
2024/01/03 09:07:34;;;;;;;16.30;15.50;;;;;;;-141.02;100.00;41987.50;5112665;28;20572;-80
2024/01/03 09:10:01;;;;;;;16.37;15.57;;;;;;;-141.02;100.00;41951.06;5112945;28;20200;-79
2024/01/03 09:12:29;;;;;;;16.37;15.57;;;;;;;-141.02;100.00;41977.91;5112896;28;20633;-83
2024/01/03 09:14:56;;;;;;;15.70;15.00;;;;;;;-141.02;100.00;42083.47;5112412;28;20311;-83
2024/01/03 09:17:25;;;;;;;16.10;15.40;;;;;;;-141.02;100.00;42091.16;5112773;28;20275;-83
2024/01/03 09:19:51;;;;;;;16.23;15.53;;;;;;;-141.02;100.00;42206.31;5112914;28;20225;-78
2024/01/03 09:22:18;;;;;;;15.10;14.50;;;;;;;-141.02;100.00;42344.53;5112416;28;20280;-82
2024/01/03 09:24:45;;;;;;;15.27;14.60;;;;;;;-141.02;100.00;42488.47;5112536;28;20189;-83
2024/01/03 09:27:12;;;;;;;15.70;15.00;;;;;;;-141.02;100.00;42559.50;5112414;28;20203;-82
2024/01/03 09:29:42;;;;;;;17.53;16.77;;;;;;;-141.02;100.00;42732.28;5112365;28;20193;-84
2024/01/03 09:32:09;;;;;;;19.50;18.60;;;;;;;-141.02;100.00;42789.88;5112762;28;20197;-80
2024/01/03 09:34:39;;;;;;;19.80;18.80;;;;;;;-141.02;100.00;42782.19;5112675;28;20246;-85
2024/01/03 09:37:06;;;;;;;17.60;16.90;;;;;;;-141.02;100.00;43020.25;5112672;28;20203;-80
2024/01/03 09:39:33;;;;;;;22.80;21.70;;;;;;;-141.02;100.00;42847.47;5112825;28;20232;-83
2024/01/03 09:42:03;;;;;;;24.40;23.20;;;;;;;-141.02;100.00;42567.19;5112656;28;20189;-84
2024/01/03 09:44:31;;;;;;;20.10;19.20;;;;;;;-141.02;100.00;42628.63;5112541;28;20274;-84
2024/01/03 09:46:59;;;;;;;19.13;18.33;;;;;;;-141.02;100.00;42555.66;5112198;28;20197;-84
2024/01/03 09:49:26;;;;;;;24.57;23.37;;;;;;;-141.02;100.00;42482.72;5112445;28;20193;-84
2024/01/03 09:51:54;;;;;;;23.97;22.93;;;;;;;-141.02;100.00;42703.47;5112158;28;20746;-84
2024/01/03 09:54:21;;;;;;;20.47;19.57;;;;;;;-141.02;100.00;42501.91;5112481;28;20579;-79
2024/01/03 09:56:48;;;;;;;21.17;20.27;;;;;;;-141.02;100.00;42524.94;5112741;28;20262;-80
2024/01/03 09:59:17;;;;;;;21.43;20.53;;;;;;;-141.02;100.00;42478.88;5115753;28;20225;-78
2024/01/03 10:01:55;;;;;;;24.03;22.93;;;;;;;-141.02;100.00;42501.91;5116770;28;20620;-78
2024/01/03 10:04:23;;;;;;;22.93;21.93;;;;;;;-141.02;100.00;42444.34;5116341;28;20192;-78
2024/01/03 10:06:53;;;;;;;26.03;24.83;;;;;;;-141.02;100.00;42369.47;5115949;28;20577;-77
2024/01/03 10:09:20;;;;;;;23.77;22.67;;;;;;;-141.02;100.00;42405.94;5115949;28;20678;-79
2024/01/03 10:11:47;;;;;;;23.63;22.53;;;;;;;-141.02;100.00;42586.38;5115968;28;20578;-79
2024/01/03 10:14:17;;;;;;;22.40;21.40;;;;;;;-141.02;100.00;42716.91;5115742;28;20228;-79
2024/01/03 10:16:44;;;;;;;23.30;22.20;;;;;;;-141.02;100.00;42824.41;5115834;28;20665;-78
2024/01/03 10:19:13;;;;;;;22.57;21.57;;;;;;;-141.02;100.00;43162.31;5115608;28;20221;-78
2024/01/03 10:21:49;;;;;;;22.03;21.03;;;;;;;-141.02;100.00;43388.88;5115684;28;20189;-78
2024/01/03 10:24:17;;;;;;;25.00;23.80;;;;;;;-141.02;100.00;43369.66;5115885;28;20276;-78
2024/01/03 10:26:45;;;;;;;26.37;25.07;;;;;;;-141.02;100.00;43350.47;5115967;28;20313;-78
2024/01/03 10:29:13;;;;;;;27.37;26.00;;;;;;;-141.02;100.00;43050.97;5115867;28;20192;-78
2024/01/03 10:31:40;;;;;;;26.00;24.70;;;;;;;-141.02;100.00;43177.66;5115486;28;20296;-77
2024/01/03 10:34:12;;;;;;;26.60;25.30;;;;;;;-141.02;100.00;43049.03;5115481;28;20197;-75
2024/01/03 10:36:42;;;;;;;27.40;26.00;;;;;;;-141.02;100.00;42905.06;5115421;28;20577;-75
2024/01/03 10:39:14;;;;;;;30.00;28.40;;;;;;;-141.02;100.00;42989.53;5115331;28;20236;-75
2024/01/03 10:41:43;;;;;;;28.50;27.00;;;;;;;-141.02;100.00;42995.28;5115423;28;20734;-74
2024/01/03 10:44:11;;;;;;;29.70;28.10;;;;;;;-141.02;100.00;42903.13;5115566;28;20193;-75
2024/01/03 10:46:39;;;;;;;29.60;28.00;;;;;;;-141.02;100.00;42826.34;5115446;28;20220;-74
2024/01/03 10:49:07;;;;;;;28.13;26.63;;;;;;;-141.02;100.00;42521.13;5115482;28;20197;-74
2024/01/03 10:51:39;;;;;;;29.33;27.83;;;;;;;-141.02;100.00;42622.84;5115115;28;20678;-74
2024/01/03 10:54:09;;;;;;;27.30;25.90;;;;;;;-141.02;100.00;42724.59;5115367;28;20186;-74
2024/01/03 10:56:36;;;;;;;27.50;26.10;;;;;;;-141.02;100.00;42793.69;5115045;28;20284;-74
2024/01/03 10:59:05;;;;;;;29.33;27.73;;;;;;;-141.02;100.00;42548.00;5115224;28;20401;-74
2024/01/03 11:01:40;;;;;;;29.33;27.73;;;;;;;-141.02;100.00;42363.72;5114922;28;20655;-74
2024/01/03 11:04:16;;;;;;;29.77;28.17;;;;;;;-141.02;100.00;42427.06;5115269;28;20267;-74